Time;durP1;ratioP1;P1;durP2;ratioP2;P2;SDS_P1;SDS_P2;PMS_P1;PMS_P2;Temp;Humidity;BMP_temperature;BMP_pressure;BME280_temperature;BME280_humidity;BME280_pressure;Samples;Min_cycle;Max_cycle;Signal;HPM_P1;HPM_P2
2022/05/23 00:01:31;;;;;;;8.90;7.00;;;;;;;;;;4825752;29;20232;-40
2022/05/23 00:03:58;;;;;;;8.98;6.40;;;;;;;;;;4825633;29;20235;-39
2022/05/23 00:06:25;;;;;;;10.40;6.90;;;;;;;;;;4825438;29;20212;-39
2022/05/23 00:08:52;;;;;;;8.98;6.32;;;;;;;;;;4825405;29;20209;-40
2022/05/23 00:11:20;;;;;;;8.23;5.85;;;;;;;;;;4824213;29;20211;-40
2022/05/23 00:13:47;;;;;;;7.90;5.75;;;;;;;;;;4825548;29;20273;-41
2022/05/23 00:16:18;;;;;;;7.07;5.75;;;;;;;;;;4825441;29;20236;-40
2022/05/23 00:18:46;;;;;;;7.85;6.00;;;;;;;;;;4825594;29;20207;-40
2022/05/23 00:21:13;;;;;;;7.90;5.93;;;;;;;;;;4825197;29;20239;-39
2022/05/23 00:23:41;;;;;;;8.80;6.20;;;;;;;;;;4825169;29;20288;-40
2022/05/23 00:26:11;;;;;;;9.68;6.65;;;;;;;;;;4825443;29;20212;-39
2022/05/23 00:28:39;;;;;;;13.57;6.53;;;;;;;;;;4810071;29;20212;-40
2022/05/23 00:31:06;;;;;;;8.88;6.03;;;;;;;;;;4826642;29;20307;-40
2022/05/23 00:36:23;;;;;;;8.40;5.95;;;;;;;;;;4812686;29;20224;-39
2022/05/23 00:38:50;;;;;;;7.85;6.03;;;;;;;;;;4812819;29;20220;-40
2022/05/23 00:44:30;;;;;;;9.10;7.25;;;;;;;;;;4828359;29;20223;-39
2022/05/23 00:47:19;;;;;;;10.63;7.05;;;;;;;;;;4828577;29;20207;-39
2022/05/23 00:49:46;;;;;;;9.98;7.00;;;;;;;;;;4812651;29;20203;-40
2022/05/23 00:52:28;;;;;;;13.65;7.80;;;;;;;;;;4828170;29;20524;-39
2022/05/23 00:54:58;;;;;;;9.73;7.38;;;;;;;;;;4842442;29;20219;-40
2022/05/23 00:57:33;;;;;;;9.18;7.25;;;;;;;;;;4829202;29;20240;-40
2022/05/23 01:00:04;;;;;;;8.27;6.80;;;;;;;;;;4828265;29;20239;-39
2022/05/23 01:02:32;;;;;;;8.23;7.03;;;;;;;;;;4812416;29;20220;-39
2022/05/23 01:04:59;;;;;;;13.68;7.45;;;;;;;;;;4842207;29;20227;-40
2022/05/23 01:07:26;;;;;;;9.35;7.55;;;;;;;;;;4812267;29;20319;-40
2022/05/23 01:09:53;;;;;;;10.35;7.47;;;;;;;;;;4811909;29;20253;-39
2022/05/23 01:12:21;;;;;;;12.43;8.10;;;;;;;;;;4827150;29;20230;-39
2022/05/23 01:14:49;;;;;;;10.93;7.85;;;;;;;;;;4826969;29;20634;-39
2022/05/23 01:17:16;;;;;;;9.77;8.13;;;;;;;;;;4827274;29;20219;-40
2022/05/23 01:19:43;;;;;;;10.43;8.50;;;;;;;;;;4827942;29;20204;-40
2022/05/23 01:22:19;;;;;;;11.45;8.38;;;;;;;;;;4826951;29;20212;-39
2022/05/23 01:25:01;;;;;;;9.68;7.57;;;;;;;;;;4842025;29;20212;-40
2022/05/23 01:27:30;;;;;;;11.32;8.63;;;;;;;;;;4827195;29;20208;-40
2022/05/23 01:29:59;;;;;;;10.45;8.05;;;;;;;;;;4827066;29;20208;-39
2022/05/23 01:32:26;;;;;;;10.77;8.20;;;;;;;;;;4811591;29;20219;-39
2022/05/23 01:34:56;;;;;;;10.48;7.90;;;;;;;;;;4826979;29;20216;-38
2022/05/23 01:37:23;;;;;;;10.40;8.27;;;;;;;;;;4827186;29;20220;-40
2022/05/23 01:39:59;;;;;;;13.35;8.43;;;;;;;;;;4811517;29;20223;-41
2022/05/23 01:42:52;;;;;;;11.93;8.60;;;;;;;;;;4822452;29;20678;-39
2022/05/23 01:45:27;;;;;;;9.93;8.25;;;;;;;;;;4842227;29;20216;-40
2022/05/23 01:47:58;;;;;;;13.10;8.30;;;;;;;;;;4811607;29;20261;-39
2022/05/23 01:50:26;;;;;;;13.40;8.60;;;;;;;;;;4841378;29;20521;-40
2022/05/23 01:52:58;;;;;;;11.20;8.32;;;;;;;;;;4827216;29;20192;-39
2022/05/23 01:55:35;;;;;;;12.68;8.10;;;;;;;;;;4811646;29;20243;-40
2022/05/23 01:58:11;;;;;;;12.85;9.00;;;;;;;;;;4826456;29;20268;-39
2022/05/23 02:03:34;;;;;;;10.63;8.18;;;;;;;;;;4810767;29;20553;-40
2022/05/23 02:06:01;;;;;;;11.50;8.30;;;;;;;;;;4826118;29;20216;-39
2022/05/23 02:08:28;;;;;;;10.20;8.48;;;;;;;;;;4810857;29;20571;-40
2022/05/23 02:10:56;;;;;;;10.70;8.20;;;;;;;;;;4825976;29;20243;-39
2022/05/23 02:13:37;;;;;;;13.95;8.70;;;;;;;;;;4841009;29;20215;-40
2022/05/23 02:16:04;;;;;;;11.43;7.57;;;;;;;;;;4840835;29;20254;-39
2022/05/23 02:18:42;;;;;;;10.25;7.82;;;;;;;;;;4841240;29;20208;-39
2022/05/23 02:21:10;;;;;;;12.50;8.07;;;;;;;;;;4840922;29;20220;-40
2022/05/23 02:23:39;;;;;;;12.18;8.63;;;;;;;;;;4825478;29;20229;-39
2022/05/23 02:26:06;;;;;;;13.80;8.80;;;;;;;;;;4826448;29;20242;-39
2022/05/23 02:28:44;;;;;;;10.13;7.90;;;;;;;;;;4810370;29;20207;-40
2022/05/23 02:31:22;;;;;;;14.65;8.85;;;;;;;;;;4826304;29;20245;-39
2022/05/23 02:33:59;;;;;;;12.23;8.45;;;;;;;;;;4810286;29;20231;-39
2022/05/23 02:36:50;;;;;;;13.13;9.02;;;;;;;;;;4821432;29;20212;-39
2022/05/23 02:39:23;;;;;;;14.10;9.18;;;;;;;;;;4810450;29;20207;-39
2022/05/23 02:41:50;;;;;;;13.90;8.48;;;;;;;;;;4840263;29;20232;-40
2022/05/23 02:44:21;;;;;;;11.85;8.48;;;;;;;;;;4810121;29;20207;-40
2022/05/23 02:46:48;;;;;;;11.15;8.48;;;;;;;;;;4826292;29;20208;-40
2022/05/23 02:49:19;;;;;;;11.63;7.95;;;;;;;;;;4840597;29;20204;-40
2022/05/23 02:51:49;;;;;;;9.38;8.23;;;;;;;;;;4809853;29;20220;-40
2022/05/23 02:54:16;;;;;;;16.60;8.18;;;;;;;;;;4825286;29;20218;-39
2022/05/23 02:56:51;;;;;;;11.80;9.45;;;;;;;;;;4840263;29;20247;-40
2022/05/23 02:59:21;;;;;;;11.27;9.02;;;;;;;;;;4809870;29;20608;-39
2022/05/23 03:04:43;;;;;;;9.52;8.48;;;;;;;;;;4810122;29;20243;-39
2022/05/23 03:07:12;;;;;;;11.38;7.68;;;;;;;;;;4826085;29;20208;-40
2022/05/23 03:09:43;;;;;;;11.95;7.68;;;;;;;;;;4825581;29;20312;-40
2022/05/23 03:12:17;;;;;;;11.63;7.72;;;;;;;;;;4840374;29;20196;-40
2022/05/23 03:14:44;;;;;;;8.23;7.28;;;;;;;;;;4840391;29;20288;-40
2022/05/23 03:17:13;;;;;;;11.65;7.38;;;;;;;;;;4825389;29;20218;-40
2022/05/23 03:19:44;;;;;;;9.55;6.80;;;;;;;;;;4840642;29;20219;-40
2022/05/23 03:27:46;;;;;;;10.35;6.97;;;;;;;;;;4810093;29;20220;-40
2022/05/23 03:30:19;;;;;;;9.63;6.93;;;;;;;;;;4839321;29;20280;-39
2022/05/23 03:32:52;;;;;;;12.45;6.78;;;;;;;;;;4839365;29;20195;-43
2022/05/23 03:35:20;;;;;;;8.88;6.70;;;;;;;;;;4824187;29;20332;-39
2022/05/23 03:37:47;;;;;;;7.53;6.40;;;;;;;;;;4809844;29;20212;-40
2022/05/23 03:40:16;;;;;;;10.35;6.68;;;;;;;;;;4825137;29;20212;-40
2022/05/23 03:42:49;;;;;;;10.13;7.10;;;;;;;;;;4825139;29;20236;-39
2022/05/23 03:45:17;;;;;;;14.60;7.07;;;;;;;;;;4824832;29;20280;-39
2022/05/23 03:47:49;;;;;;;10.50;6.85;;;;;;;;;;4824669;29;20220;-41
2022/05/23 03:50:18;;;;;;;8.30;6.80;;;;;;;;;;4824658;29;20232;-39
2022/05/23 03:52:46;;;;;;;9.77;7.53;;;;;;;;;;4825530;29;20631;-41
2022/05/23 03:55:22;;;;;;;7.85;7.05;;;;;;;;;;4840435;29;20211;-39
2022/05/23 03:58:02;;;;;;;8.32;7.00;;;;;;;;;;4835096;29;20562;-41
2022/05/23 04:00:29;;;;;;;14.52;7.60;;;;;;;;;;4808458;29;20251;-42
2022/05/23 04:02:56;;;;;;;9.13;7.60;;;;;;;;;;4823718;29;20263;-39
2022/05/23 04:05:23;;;;;;;12.52;7.50;;;;;;;;;;4825310;29;20750;-39
2022/05/23 04:08:04;;;;;;;9.88;7.25;;;;;;;;;;4827395;29;20235;-40
2022/05/23 04:10:41;;;;;;;9.20;7.40;;;;;;;;;;4827001;29;20231;-39
2022/05/23 04:13:12;;;;;;;9.75;7.93;;;;;;;;;;4811880;29;20568;-40
2022/05/23 04:15:41;;;;;;;10.77;7.38;;;;;;;;;;4827102;29;20232;-40
2022/05/23 04:18:10;;;;;;;9.00;6.93;;;;;;;;;;4826898;29;20288;-40
2022/05/23 04:20:38;;;;;;;9.60;6.80;;;;;;;;;;4827036;29;20259;-39
2022/05/23 04:23:18;;;;;;;11.18;7.47;;;;;;;;;;4824788;29;20293;-40
2022/05/23 04:25:48;;;;;;;11.30;8.30;;;;;;;;;;4811113;29;20304;-40
2022/05/23 04:28:17;;;;;;;11.77;8.23;;;;;;;;;;4826022;29;20228;-39
2022/05/23 04:30:45;;;;;;;10.57;6.85;;;;;;;;;;4827487;29;20224;-40
2022/05/23 04:36:03;;;;;;;10.45;7.45;;;;;;;;;;4841449;29;20236;-39
2022/05/23 04:38:34;;;;;;;8.25;7.30;;;;;;;;;;4811307;29;20255;-40
2022/05/23 04:41:06;;;;;;;14.77;7.68;;;;;;;;;;4826298;29;20247;-41
2022/05/23 04:43:52;;;;;;;11.82;7.18;;;;;;;;;;4810100;29;20240;-39
2022/05/23 04:46:23;;;;;;;10.07;7.55;;;;;;;;;;4811292;29;20310;-42
2022/05/23 04:52:02;;;;;;;10.52;7.38;;;;;;;;;;4840825;29;20307;-41
2022/05/23 04:54:38;;;;;;;8.57;7.15;;;;;;;;;;4810854;29;20228;-40
2022/05/23 04:57:06;;;;;;;11.02;6.93;;;;;;;;;;4825414;29;20246;-41
2022/05/23 04:59:34;;;;;;;10.10;7.57;;;;;;;;;;4823560;29;20296;-43
2022/05/23 05:02:03;;;;;;;6.85;5.85;;;;;;;;;;4810255;29;20244;-40
2022/05/23 05:04:32;;;;;;;9.10;6.20;;;;;;;;;;4823519;29;20236;-40
2022/05/23 05:06:59;;;;;;;9.57;6.55;;;;;;;;;;4827648;29;20665;-39
2022/05/23 05:09:27;;;;;;;9.75;6.32;;;;;;;;;;4827194;29;20671;-39
2022/05/23 05:12:04;;;;;;;9.63;5.63;;;;;;;;;;4827224;29;20248;-39
2022/05/23 05:14:34;;;;;;;11.00;5.55;;;;;;;;;;4812091;29;20216;-39
2022/05/23 05:17:06;;;;;;;10.75;5.93;;;;;;;;;;4827225;29;20215;-39
2022/05/23 05:19:34;;;;;;;6.82;5.72;;;;;;;;;;4812558;29;20292;-39
2022/05/23 05:22:21;;;;;;;14.35;6.28;;;;;;;;;;4774702;29;20231;-39
2022/05/23 05:25:06;;;;;;;9.38;6.40;;;;;;;;;;4827220;29;20208;-39
2022/05/23 05:27:39;;;;;;;9.52;6.05;;;;;;;;;;4827533;29;20578;-40
2022/05/23 05:30:11;;;;;;;11.98;6.70;;;;;;;;;;4827662;29;20208;-39
2022/05/23 05:33:06;;;;;;;13.50;6.45;;;;;;;;;;4827527;29;20220;-39
2022/05/23 05:35:38;;;;;;;10.05;6.05;;;;;;;;;;4825684;29;20598;-39
2022/05/23 05:38:14;;;;;;;8.68;6.22;;;;;;;;;;4811656;29;20279;-39
2022/05/23 05:40:43;;;;;;;7.13;5.72;;;;;;;;;;4826605;29;20212;-39
2022/05/23 05:43:18;;;;;;;6.53;5.25;;;;;;;;;;4826608;29;20247;-39
2022/05/23 05:45:52;;;;;;;8.95;5.35;;;;;;;;;;4826888;29;20542;-40
2022/05/23 05:48:40;;;;;;;10.52;6.15;;;;;;;;;;4826653;29;20214;-39
2022/05/23 05:51:09;;;;;;;7.25;5.63;;;;;;;;;;4811497;29;20200;-39
2022/05/23 05:53:42;;;;;;;7.80;5.25;;;;;;;;;;4797155;29;20248;-40
2022/05/23 05:56:17;;;;;;;7.75;5.60;;;;;;;;;;4797593;29;20247;-40
2022/05/23 05:58:46;;;;;;;9.63;5.90;;;;;;;;;;4827380;29;20212;-39
2022/05/23 06:01:14;;;;;;;11.32;5.40;;;;;;;;;;4811378;29;20326;-39
2022/05/23 06:03:41;;;;;;;9.35;5.22;;;;;;;;;;4826208;29;20219;-39
2022/05/23 06:11:59;;;;;;;10.13;5.25;;;;;;;;;;4826828;29;20216;-39
2022/05/23 06:14:29;;;;;;;7.10;4.93;;;;;;;;;;4811405;29;20197;-40
2022/05/23 06:17:05;;;;;;;8.77;5.68;;;;;;;;;;4811111;29;20208;-40
2022/05/23 06:19:38;;;;;;;6.30;4.85;;;;;;;;;;4825971;29;20199;-39
2022/05/23 06:22:19;;;;;;;9.48;5.32;;;;;;;;;;4826102;29;20292;-39
2022/05/23 06:25:15;;;;;;;11.43;4.70;;;;;;;;;;4770990;30;20630;-39
2022/05/23 06:27:43;;;;;;;7.03;4.93;;;;;;;;;;4770679;30;20301;-39
2022/05/23 06:30:15;;;;;;;6.85;4.93;;;;;;;;;;4770862;30;20280;-39
2022/05/23 06:32:48;;;;;;;7.18;4.78;;;;;;;;;;4771112;30;20606;-39
2022/05/23 06:35:29;;;;;;;10.82;4.38;;;;;;;;;;4756232;30;20214;-39
2022/05/23 06:37:56;;;;;;;9.88;4.70;;;;;;;;;;4756567;30;20218;-39
2022/05/23 06:40:35;;;;;;;10.20;4.75;;;;;;;;;;4770710;30;20206;-39
2022/05/23 06:43:23;;;;;;;8.20;4.75;;;;;;;;;;4770556;30;20242;-40
2022/05/23 06:46:10;;;;;;;8.75;4.88;;;;;;;;;;4770852;30;20733;-40
2022/05/23 06:49:00;;;;;;;8.43;4.47;;;;;;;;;;4770611;30;20239;-39
2022/05/23 06:52:03;;;;;;;5.75;4.13;;;;;;;;;;4770606;30;20226;-39
2022/05/23 06:54:41;;;;;;;12.98;4.70;;;;;;;;;;4755971;30;20271;-40
2022/05/23 06:57:12;;;;;;;5.82;4.47;;;;;;;;;;4770101;30;20253;-40
2022/05/23 06:59:39;;;;;;;6.20;4.18;;;;;;;;;;4770375;30;20228;-39
2022/05/23 07:02:09;;;;;;;8.82;4.97;;;;;;;;;;4798216;29;20251;-39
2022/05/23 07:14:09;;;;;;;5.60;4.43;;;;;;;;;;4740306;30;20227;-39
2022/05/23 07:16:36;;;;;;;8.30;5.22;;;;;;;;;;4752920;30;20214;-39
2022/05/23 07:19:05;;;;;;;6.68;4.50;;;;;;;;;;4738284;30;20214;-39
2022/05/23 07:22:00;;;;;;;11.80;5.38;;;;;;;;;;4752421;30;20678;-40
2022/05/23 07:24:34;;;;;;;8.90;4.63;;;;;;;;;;4752666;30;20569;-39
2022/05/23 07:27:06;;;;;;;10.98;5.30;;;;;;;;;;4752422;30;20214;-41
2022/05/23 07:29:33;;;;;;;7.75;4.95;;;;;;;;;;4738421;30;20215;-39
2022/05/23 07:32:08;;;;;;;7.88;4.85;;;;;;;;;;4738032;30;20280;-39
2022/05/23 07:34:35;;;;;;;7.95;4.80;;;;;;;;;;4737978;30;20230;-39
2022/05/23 07:37:02;;;;;;;10.73;4.80;;;;;;;;;;4737497;30;20218;-39
2022/05/23 07:39:29;;;;;;;9.88;5.00;;;;;;;;;;4752332;30;20251;-39
2022/05/23 07:42:06;;;;;;;9.57;5.68;;;;;;;;;;4740681;30;20275;-39
2022/05/23 07:44:35;;;;;;;7.65;4.78;;;;;;;;;;4784472;29;20516;-39
2022/05/23 07:47:07;;;;;;;9.18;4.75;;;;;;;;;;4813568;29;20223;-39
2022/05/23 07:49:39;;;;;;;11.10;5.30;;;;;;;;;;4828933;29;20219;-39
2022/05/23 07:52:14;;;;;;;12.80;5.88;;;;;;;;;;4800378;29;20230;-39
2022/05/23 08:00:32;;;;;;;13.23;5.35;;;;;;;;;;4828556;29;20256;-39
2022/05/23 08:03:16;;;;;;;6.32;4.85;;;;;;;;;;4828014;29;20310;-39
2022/05/23 08:05:53;;;;;;;9.13;5.65;;;;;;;;;;4800290;29;20215;-39
2022/05/23 08:08:22;;;;;;;8.70;5.38;;;;;;;;;;4813238;29;20219;-38
2022/05/23 08:10:49;;;;;;;9.23;4.78;;;;;;;;;;4828159;29;20242;-39
2022/05/23 08:13:17;;;;;;;7.35;5.43;;;;;;;;;;4828041;29;20220;-39
2022/05/23 08:15:44;;;;;;;13.68;5.13;;;;;;;;;;4813133;29;20268;-38
2022/05/23 08:18:16;;;;;;;9.32;5.28;;;;;;;;;;4813021;29;20259;-39
2022/05/23 08:20:50;;;;;;;12.65;5.43;;;;;;;;;;4813289;29;20574;-39
2022/05/23 08:23:21;;;;;;;8.35;5.32;;;;;;;;;;4812846;29;20236;-39
2022/05/23 08:26:18;;;;;;;7.28;4.60;;;;;;;;;;4828079;29;20284;-39
2022/05/23 08:28:47;;;;;;;7.28;4.60;;;;;;;;;;4827918;29;20295;-39
2022/05/23 08:31:16;;;;;;;12.10;5.15;;;;;;;;;;4813060;29;20209;-39
2022/05/23 08:34:06;;;;;;;6.05;4.72;;;;;;;;;;4827654;29;20542;-39
2022/05/23 08:36:34;;;;;;;10.93;5.03;;;;;;;;;;4827557;29;20666;-39
2022/05/23 08:39:03;;;;;;;13.70;5.57;;;;;;;;;;4812772;29;20236;-39
2022/05/23 08:41:44;;;;;;;13.10;5.13;;;;;;;;;;4827628;29;20200;-39
2022/05/23 08:44:49;;;;;;;9.25;5.60;;;;;;;;;;4772652;30;20650;-39
2022/05/23 08:47:36;;;;;;;11.45;5.55;;;;;;;;;;4758833;30;20221;-38
2022/05/23 08:50:37;;;;;;;8.52;5.18;;;;;;;;;;4772632;30;20198;-40
2022/05/23 08:53:15;;;;;;;9.07;4.82;;;;;;;;;;4772216;30;20222;-39
2022/05/23 08:56:18;;;;;;;7.72;4.75;;;;;;;;;;4758529;30;20341;-39
2022/05/23 08:58:56;;;;;;;7.30;4.90;;;;;;;;;;4744110;30;20206;-38
2022/05/23 09:01:26;;;;;;;9.80;5.00;;;;;;;;;;4757622;30;20672;-38
2022/05/23 09:04:16;;;;;;;8.98;4.70;;;;;;;;;;4743308;30;20237;-39
2022/05/23 09:06:47;;;;;;;8.35;4.90;;;;;;;;;;4757679;30;20210;-39
2022/05/23 09:09:20;;;;;;;12.45;4.93;;;;;;;;;;4757927;30;20256;-38
2022/05/23 09:11:54;;;;;;;6.88;4.50;;;;;;;;;;4758050;30;20216;-39
2022/05/23 09:14:21;;;;;;;7.15;4.72;;;;;;;;;;4758213;30;20732;-39
2022/05/23 09:16:53;;;;;;;10.35;5.60;;;;;;;;;;4772154;30;20214;-39
2022/05/23 09:19:49;;;;;;;6.38;4.20;;;;;;;;;;4793646;29;20273;-38
2022/05/23 09:22:24;;;;;;;7.75;4.57;;;;;;;;;;4808937;29;20265;-39
2022/05/23 09:24:57;;;;;;;8.45;4.70;;;;;;;;;;4795383;29;20213;-40
2022/05/23 09:27:36;;;;;;;12.60;4.85;;;;;;;;;;4809278;29;20220;-38
2022/05/23 09:30:08;;;;;;;8.55;4.50;;;;;;;;;;4809526;29;20212;-38
2022/05/23 09:32:39;;;;;;;7.35;4.63;;;;;;;;;;4809486;29;20220;-39
2022/05/23 09:35:15;;;;;;;7.47;4.22;;;;;;;;;;4809648;29;20632;-40
2022/05/23 09:38:27;;;;;;;6.65;4.40;;;;;;;;;;4809339;29;20209;-40
2022/05/23 09:47:45;;;;;;;7.53;3.85;;;;;;;;;;4809053;29;20620;-40
2022/05/23 09:50:34;;;;;;;8.20;3.85;;;;;;;;;;4809575;29;20217;-39
2022/05/23 09:53:17;;;;;;;5.45;4.45;;;;;;;;;;4809442;29;20574;-38
2022/05/23 09:55:45;;;;;;;10.73;3.58;;;;;;;;;;4808241;29;20703;-39
2022/05/23 09:58:21;;;;;;;4.45;3.35;;;;;;;;;;4808299;29;20204;-39
2022/05/23 10:01:01;;;;;;;7.55;4.10;;;;;;;;;;4808824;29;20217;-39
2022/05/23 10:03:30;;;;;;;6.60;4.30;;;;;;;;;;4807393;29;20228;-38
2022/05/23 10:06:05;;;;;;;5.45;3.30;;;;;;;;;;4809133;29;20208;-39
2022/05/23 10:08:38;;;;;;;5.38;3.00;;;;;;;;;;4809067;29;20193;-39
2022/05/23 10:11:26;;;;;;;7.65;3.22;;;;;;;;;;4823220;29;20217;-39
2022/05/23 10:13:57;;;;;;;6.25;3.25;;;;;;;;;;4808432;29;20221;-41
2022/05/23 10:16:28;;;;;;;7.75;2.88;;;;;;;;;;4808397;29;20228;-41
2022/05/23 10:19:02;;;;;;;3.67;3.00;;;;;;;;;;4808019;29;20216;-39
2022/05/23 10:21:33;;;;;;;7.38;3.00;;;;;;;;;;4808797;29;20270;-39
2022/05/23 10:24:10;;;;;;;8.82;3.33;;;;;;;;;;4808342;29;20735;-39
2022/05/23 10:26:45;;;;;;;5.65;3.83;;;;;;;;;;4809125;29;20220;-39
2022/05/23 10:29:25;;;;;;;7.88;3.40;;;;;;;;;;4807859;29;20538;-39
2022/05/23 10:32:13;;;;;;;5.80;3.13;;;;;;;;;;4807567;29;20209;-39
2022/05/23 10:34:42;;;;;;;5.38;2.80;;;;;;;;;;4809052;29;20196;-39
2022/05/23 10:37:23;;;;;;;8.13;2.97;;;;;;;;;;4808189;29;20608;-39
2022/05/23 10:43:14;;;;;;;6.60;2.97;;;;;;;;;;4808285;29;20221;-39
2022/05/23 10:45:53;;;;;;;8.13;3.25;;;;;;;;;;4808004;29;20201;-40
2022/05/23 10:48:40;;;;;;;4.47;3.03;;;;;;;;;;4806835;29;20220;-39
2022/05/23 10:51:42;;;;;;;4.35;2.95;;;;;;;;;;4806790;29;20215;-39
2022/05/23 10:54:38;;;;;;;8.30;3.47;;;;;;;;;;4770185;30;20546;-40
2022/05/23 10:57:21;;;;;;;7.22;3.35;;;;;;;;;;4775866;30;20649;-40
2022/05/23 10:59:53;;;;;;;6.60;3.20;;;;;;;;;;4780076;30;20218;-44
2022/05/23 11:02:44;;;;;;;5.88;2.85;;;;;;;;;;4769355;30;20309;-41
2022/05/23 11:05:24;;;;;;;7.72;3.35;;;;;;;;;;4770412;30;20226;-42
2022/05/23 11:08:05;;;;;;;7.63;2.95;;;;;;;;;;4755409;30;20203;-42
2022/05/23 11:10:44;;;;;;;5.25;3.78;;;;;;;;;;4769663;30;20210;-42
2022/05/23 11:13:41;;;;;;;4.63;3.53;;;;;;;;;;4769826;30;20559;-42
2022/05/23 11:16:18;;;;;;;8.40;3.40;;;;;;;;;;4769771;30;20626;-41
2022/05/23 11:19:33;;;;;;;7.38;3.55;;;;;;;;;;4769884;30;20227;-41
2022/05/23 11:22:12;;;;;;;4.18;3.40;;;;;;;;;;4780281;30;20621;-41
2022/05/23 11:24:55;;;;;;;7.88;3.95;;;;;;;;;;4784297;30;20254;-41
2022/05/23 11:35:47;;;;;;;5.97;3.60;;;;;;;;;;4807278;29;20225;-40
2022/05/23 11:38:16;;;;;;;5.82;3.22;;;;;;;;;;4808042;29;20220;-40
2022/05/23 11:41:00;;;;;;;5.00;3.30;;;;;;;;;;4807104;29;20652;-40
2022/05/23 11:43:28;;;;;;;6.03;3.63;;;;;;;;;;4807563;29;20213;-41
2022/05/23 11:46:05;;;;;;;5.80;2.53;;;;;;;;;;4807191;29;20575;-42
2022/05/23 11:51:12;;;;;;;6.90;3.17;;;;;;;;;;4807719;29;20208;-43
2022/05/23 11:53:57;;;;;;;4.75;2.60;;;;;;;;;;4806773;29;20205;-41
2022/05/23 11:56:40;;;;;;;6.07;3.17;;;;;;;;;;4816700;29;20243;-41
2022/05/23 11:59:11;;;;;;;5.13;2.80;;;;;;;;;;4825782;29;20192;-41
2022/05/23 12:01:39;;;;;;;5.78;2.40;;;;;;;;;;4825547;29;20217;-42
2022/05/23 12:04:12;;;;;;;3.85;2.65;;;;;;;;;;4824791;29;20224;-41
2022/05/23 12:06:47;;;;;;;5.50;2.70;;;;;;;;;;4810451;29;20617;-41
2022/05/23 12:09:14;;;;;;;4.10;2.40;;;;;;;;;;4825564;29;20208;-41
2022/05/23 12:11:44;;;;;;;5.35;2.67;;;;;;;;;;4825255;29;20212;-40
2022/05/23 12:14:14;;;;;;;6.68;2.60;;;;;;;;;;4809550;29;20224;-40
2022/05/23 12:16:44;;;;;;;4.88;2.60;;;;;;;;;;4825200;29;20216;-41
2022/05/23 12:19:34;;;;;;;5.50;2.70;;;;;;;;;;4809645;29;20216;-41
2022/05/23 12:22:23;;;;;;;3.65;2.83;;;;;;;;;;4825451;29;20219;-41
2022/05/23 12:24:59;;;;;;;4.13;2.60;;;;;;;;;;4825684;29;20216;-41
2022/05/23 12:27:34;;;;;;;9.50;2.78;;;;;;;;;;4827524;29;20188;-40
2022/05/23 12:30:18;;;;;;;8.68;2.65;;;;;;;;;;4813190;29;20265;-41
2022/05/23 12:32:58;;;;;;;5.18;2.85;;;;;;;;;;4828592;29;20265;-41
2022/05/23 12:35:40;;;;;;;5.20;2.60;;;;;;;;;;4828868;29;20305;-40
2022/05/23 12:38:48;;;;;;;7.32;3.05;;;;;;;;;;4828472;29;20196;-41
2022/05/23 12:41:50;;;;;;;7.53;2.70;;;;;;;;;;4754946;30;20284;-41
2022/05/23 12:44:23;;;;;;;3.88;2.15;;;;;;;;;;4755174;30;20689;-41
2022/05/23 12:47:01;;;;;;;4.97;2.33;;;;;;;;;;4755164;30;20263;-41
2022/05/23 12:49:33;;;;;;;2.92;2.22;;;;;;;;;;4754818;30;20198;-41
2022/05/23 12:52:30;;;;;;;5.25;2.53;;;;;;;;;;4750465;30;20569;-46
2022/05/23 12:55:11;;;;;;;6.13;2.92;;;;;;;;;;4750124;30;20246;-42
2022/05/23 12:58:15;;;;;;;9.00;3.00;;;;;;;;;;4739955;30;20249;-40
2022/05/23 13:00:51;;;;;;;5.90;2.38;;;;;;;;;;4753446;30;20693;-40
2022/05/23 13:03:52;;;;;;;6.25;2.47;;;;;;;;;;4739010;30;20255;-41
2022/05/23 13:06:24;;;;;;;10.95;2.60;;;;;;;;;;4753100;30;20579;-41
2022/05/23 13:08:51;;;;;;;3.70;2.35;;;;;;;;;;4752963;30;20243;-42
2022/05/23 13:11:37;;;;;;;3.15;2.15;;;;;;;;;;4753029;30;20262;-41
2022/05/23 13:14:05;;;;;;;5.30;2.20;;;;;;;;;;4767160;30;20300;-43
2022/05/23 13:16:36;;;;;;;3.88;2.20;;;;;;;;;;4767556;29;20234;-41
2022/05/23 13:22:05;;;;;;;6.15;2.90;;;;;;;;;;4824116;29;20591;-42
2022/05/23 13:27:44;;;;;;;3.67;2.03;;;;;;;;;;4826375;29;20544;-41
2022/05/23 13:30:17;;;;;;;5.35;2.30;;;;;;;;;;4792501;29;20233;-41
2022/05/23 13:32:59;;;;;;;5.57;2.33;;;;;;;;;;4808630;29;20297;-42
2022/05/23 13:35:28;;;;;;;4.40;1.83;;;;;;;;;;4808515;29;20256;-41
2022/05/23 13:37:55;;;;;;;5.53;2.22;;;;;;;;;;4796885;29;20616;-42
2022/05/23 13:40:30;;;;;;;6.65;2.50;;;;;;;;;;4825462;29;20228;-41
2022/05/23 13:43:11;;;;;;;5.20;2.08;;;;;;;;;;4826174;29;20254;-41
2022/05/23 13:45:42;;;;;;;6.45;2.38;;;;;;;;;;4825979;29;20435;-42
2022/05/23 13:48:17;;;;;;;6.30;2.30;;;;;;;;;;4824741;29;20679;-40
2022/05/23 13:50:49;;;;;;;5.90;2.30;;;;;;;;;;4825185;29;20559;-40
2022/05/23 13:53:21;;;;;;;2.58;1.90;;;;;;;;;;4809054;29;20270;-41
2022/05/23 13:55:50;;;;;;;6.82;2.28;;;;;;;;;;4809110;29;20259;-40
2022/05/23 13:58:24;;;;;;;3.35;2.10;;;;;;;;;;4826146;29;20232;-41
2022/05/23 14:01:06;;;;;;;4.97;2.40;;;;;;;;;;4825928;29;20636;-42
2022/05/23 14:03:36;;;;;;;4.05;2.08;;;;;;;;;;4826327;29;20636;-40
2022/05/23 14:06:07;;;;;;;2.90;2.10;;;;;;;;;;4840021;29;20240;-40
2022/05/23 14:08:41;;;;;;;8.32;2.38;;;;;;;;;;4839440;29;20228;-40
2022/05/23 14:11:21;;;;;;;18.80;9.60;;;;;;;;;;4819764;29;20268;-41
2022/05/23 14:14:00;;;;;;;5.60;2.60;;;;;;;;;;4837676;29;20284;-42
2022/05/23 14:16:31;;;;;;;5.07;2.65;;;;;;;;;;4786940;29;20244;-42
2022/05/23 14:19:25;;;;;;;10.27;2.60;;;;;;;;;;4773477;30;20286;-41
2022/05/23 14:22:13;;;;;;;4.25;2.35;;;;;;;;;;4781540;30;20229;-40
2022/05/23 14:24:45;;;;;;;6.13;2.65;;;;;;;;;;4785287;30;20893;-43
2022/05/23 14:27:30;;;;;;;7.20;2.40;;;;;;;;;;4785210;30;20390;-42
2022/05/23 14:30:19;;;;;;;5.68;2.38;;;;;;;;;;4785150;30;20240;-41
2022/05/23 14:32:57;;;;;;;7.38;2.58;;;;;;;;;;4786174;29;20232;-40
2022/05/23 14:35:28;;;;;;;3.10;2.30;;;;;;;;;;4786404;30;20312;-40
2022/05/23 14:37:56;;;;;;;7.70;2.45;;;;;;;;;;4769984;30;20252;-41
2022/05/23 14:40:36;;;;;;;4.65;2.55;;;;;;;;;;4785674;30;20237;-40
2022/05/23 14:43:08;;;;;;;2.75;2.28;;;;;;;;;;4783725;30;20704;-41
2022/05/23 14:45:50;;;;;;;3.17;2.30;;;;;;;;;;4771524;30;20229;-41
2022/05/23 14:48:32;;;;;;;3.47;2.22;;;;;;;;;;4816660;29;20594;-43
2022/05/23 14:51:12;;;;;;;6.82;2.47;;;;;;;;;;4818098;29;20235;-40
2022/05/23 14:56:38;;;;;;;5.75;2.03;;;;;;;;;;4824780;29;20312;-42
2022/05/23 15:02:01;;;;;;;4.05;2.53;;;;;;;;;;4825110;29;20373;-41
2022/05/23 15:04:30;;;;;;;5.13;2.50;;;;;;;;;;4809406;29;20258;-41
2022/05/23 15:06:59;;;;;;;6.47;2.63;;;;;;;;;;4824236;29;20524;-43
2022/05/23 15:09:26;;;;;;;8.02;2.60;;;;;;;;;;4825015;29;20748;-40
2022/05/23 15:11:54;;;;;;;4.78;2.72;;;;;;;;;;4825004;29;20259;-43
2022/05/23 15:14:22;;;;;;;5.47;3.00;;;;;;;;;;4825457;29;20323;-40
2022/05/23 15:16:49;;;;;;;4.72;2.70;;;;;;;;;;4824031;29;20510;-41
2022/05/23 15:19:18;;;;;;;5.20;2.75;;;;;;;;;;4816568;29;20236;-41
2022/05/23 15:21:47;;;;;;;9.50;2.83;;;;;;;;;;4807053;29;20572;-39
2022/05/23 15:24:14;;;;;;;6.95;3.10;;;;;;;;;;4819985;29;20235;-41
2022/05/23 15:26:44;;;;;;;7.15;2.80;;;;;;;;;;4825393;29;20244;-42
2022/05/23 15:29:12;;;;;;;8.13;2.92;;;;;;;;;;4819274;29;20235;-40
2022/05/23 15:31:45;;;;;;;5.72;2.83;;;;;;;;;;4824816;29;20228;-40
2022/05/23 15:34:13;;;;;;;6.85;3.10;;;;;;;;;;4824512;29;20242;-40
2022/05/23 15:36:40;;;;;;;7.28;3.47;;;;;;;;;;4825427;29;20702;-41
2022/05/23 15:39:08;;;;;;;5.70;3.13;;;;;;;;;;4823981;29;20268;-40
2022/05/23 15:41:41;;;;;;;8.40;3.60;;;;;;;;;;4825038;29;20723;-40
2022/05/23 15:44:14;;;;;;;7.60;3.05;;;;;;;;;;4823002;29;20731;-43
2022/05/23 15:46:44;;;;;;;5.72;3.20;;;;;;;;;;4823455;29;20236;-41
2022/05/23 15:49:12;;;;;;;4.57;3.30;;;;;;;;;;4823371;29;20601;-41
2022/05/23 15:51:40;;;;;;;8.45;3.17;;;;;;;;;;4823809;29;20236;-42
2022/05/23 15:54:08;;;;;;;13.00;3.17;;;;;;;;;;4822875;29;20232;-41
2022/05/23 15:56:35;;;;;;;5.55;3.10;;;;;;;;;;4824161;29;20240;-41
2022/05/23 15:59:03;;;;;;;6.90;3.63;;;;;;;;;;4824273;29;20243;-40
2022/05/23 16:01:31;;;;;;;5.80;3.22;;;;;;;;;;4825361;29;20227;-40
2022/05/23 16:03:58;;;;;;;7.70;3.50;;;;;;;;;;4827433;29;20228;-43
2022/05/23 16:06:25;;;;;;;4.03;3.30;;;;;;;;;;4828015;29;20231;-40
2022/05/23 16:09:01;;;;;;;4.22;3.42;;;;;;;;;;4827397;29;20231;-41
2022/05/23 16:11:31;;;;;;;6.75;3.92;;;;;;;;;;4828210;29;20380;-41
2022/05/23 16:14:00;;;;;;;5.32;3.85;;;;;;;;;;4818712;29;20246;-41
2022/05/23 16:16:28;;;;;;;12.20;3.50;;;;;;;;;;4828234;29;20228;-40
2022/05/23 16:18:56;;;;;;;7.20;3.75;;;;;;;;;;4811212;29;20699;-42
2022/05/23 16:21:25;;;;;;;10.25;3.90;;;;;;;;;;4826554;29;20624;-40
2022/05/23 16:23:52;;;;;;;7.10;3.67;;;;;;;;;;4841295;29;20235;-41
2022/05/23 16:26:20;;;;;;;5.28;3.47;;;;;;;;;;4827245;29;20980;-41
2022/05/23 16:28:47;;;;;;;5.82;4.05;;;;;;;;;;4827726;29;20288;-40
2022/05/23 16:31:16;;;;;;;7.07;4.25;;;;;;;;;;4826867;29;20220;-41
2022/05/23 16:36:35;;;;;;;7.63;4.32;;;;;;;;;;4815695;29;20326;-41
2022/05/23 16:39:04;;;;;;;6.75;4.32;;;;;;;;;;4809665;29;20228;-41
2022/05/23 16:41:31;;;;;;;8.57;4.72;;;;;;;;;;4810373;29;20576;-44